createdAt,value
2019-02-03T00:01:18.100Z,125.80
2019-02-03T00:03:47.724Z,119.08
2019-02-03T00:06:17.320Z,124.60
2019-02-03T00:08:46.929Z,111.57
2019-02-03T00:11:16.846Z,123.13
2019-02-03T00:13:46.453Z,145.90
2019-02-03T00:16:16.062Z,139.12
2019-02-03T00:18:45.350Z,141.55
2019-02-03T00:21:14.709Z,140.82
2019-02-03T00:23:44.020Z,142.87
2019-02-03T00:26:13.569Z,144.37
2019-02-03T00:28:43.378Z,138.97
2019-02-03T00:31:12.668Z,134.75
2019-02-03T00:33:41.952Z,158.50
2019-02-03T00:36:12.227Z,155.05
2019-02-03T00:38:41.830Z,154.70
2019-02-03T00:41:11.496Z,177.15
2019-02-03T00:43:40.871Z,145.57
2019-02-03T00:46:10.162Z,152.17
2019-02-03T00:48:39.447Z,162.53
2019-02-03T00:51:09.975Z,145.85
2019-02-03T00:53:39.401Z,139.55
2019-02-03T00:56:08.961Z,128.05
2019-02-03T00:58:38.577Z,147.07
2019-02-03T01:01:07.869Z,121.65
2019-02-03T01:03:37.625Z,123.65
2019-02-03T01:06:06.919Z,108.20
2019-02-03T01:08:36.195Z,122.05
2019-02-03T01:11:05.554Z,128.07
2019-02-03T01:13:34.824Z,110.75
2019-02-03T01:16:04.601Z,117.75
2019-02-03T01:18:35.136Z,109.55
2019-02-03T01:21:04.485Z,110.60
2019-02-03T01:23:33.766Z,106.80
2019-02-03T01:26:03.331Z,94.90
2019-02-03T01:28:32.623Z,100.15
2019-02-03T01:31:02.450Z,90.42
2019-02-03T01:33:31.729Z,100.67
2019-02-03T01:36:01.022Z,88.03
2019-02-03T01:38:30.298Z,98.95
2019-02-03T01:40:59.577Z,96.40
2019-02-03T01:43:28.853Z,87.70
2019-02-03T01:45:58.465Z,80.40
2019-02-03T01:48:27.738Z,68.42
2019-02-03T01:50:57.029Z,75.37
2019-02-03T01:53:26.293Z,67.53
2019-02-03T01:55:55.869Z,80.32
2019-02-03T01:58:25.517Z,67.10
2019-02-03T02:00:55.081Z,74.82
2019-02-03T02:03:24.357Z,65.80
2019-02-03T02:05:53.649Z,65.22
2019-02-03T02:08:22.921Z,65.52
2019-02-03T02:10:52.213Z,71.67
2019-02-03T02:13:21.494Z,63.90
2019-02-03T02:15:51.105Z,68.00
2019-02-03T02:18:20.364Z,66.30
2019-02-03T02:20:49.649Z,69.32
2019-02-03T02:23:18.921Z,76.35
2019-02-03T02:25:48.912Z,73.22
2019-02-03T02:28:18.184Z,78.72
2019-02-03T02:30:47.816Z,88.07
2019-02-03T02:33:17.435Z,78.30
2019-02-03T02:35:47.047Z,80.35
2019-02-03T02:38:16.314Z,88.47
2019-02-03T02:40:45.685Z,90.10
2019-02-03T02:43:15.253Z,83.10
2019-02-03T02:45:44.558Z,85.30
2019-02-03T02:48:15.178Z,76.50
2019-02-03T02:50:44.791Z,87.65
2019-02-03T02:53:14.442Z,80.87
2019-02-03T02:55:43.742Z,97.78
2019-02-03T02:58:13.000Z,82.30
2019-02-03T03:00:42.286Z,82.25
2019-02-03T03:03:11.807Z,89.52
2019-02-03T03:05:41.090Z,84.87
2019-02-03T03:08:19.266Z,96.10
2019-02-03T03:10:41.654Z,101.30
2019-02-03T03:13:11.268Z,102.12
2019-02-03T03:15:40.559Z,104.95
2019-02-03T03:18:10.805Z,125.10
2019-02-03T03:20:40.473Z,115.85
2019-02-03T03:23:09.749Z,117.45
2019-02-03T03:25:39.104Z,123.62
2019-02-03T03:28:08.416Z,115.15
2019-02-03T03:30:38.003Z,110.00
2019-02-03T03:33:07.291Z,114.45
2019-02-03T03:35:36.585Z,124.78
2019-02-03T03:38:05.866Z,120.95
2019-02-03T03:40:35.166Z,117.77
2019-02-03T03:43:04.679Z,130.70
2019-02-03T03:45:34.198Z,123.42
2019-02-03T03:48:03.921Z,123.00
2019-02-03T03:50:33.538Z,128.15
2019-02-03T03:53:02.877Z,133.47
2019-02-03T03:55:32.457Z,128.97
2019-02-03T03:58:01.741Z,136.07
2019-02-03T04:00:31.671Z,134.18
2019-02-03T04:03:00.957Z,135.50
2019-02-03T04:05:30.250Z,150.05
2019-02-03T04:07:59.546Z,146.65
2019-02-03T04:10:29.076Z,149.25
2019-02-03T04:12:58.361Z,153.38
2019-02-03T04:15:28.001Z,143.15
2019-02-03T04:17:57.285Z,146.62
2019-02-03T04:20:28.404Z,178.70
2019-02-03T04:22:57.873Z,152.90
2019-02-03T04:25:28.182Z,149.93
2019-02-03T04:27:57.765Z,175.12
2019-02-03T04:30:27.699Z,169.97
2019-02-03T04:32:57.113Z,156.80
2019-02-03T04:35:26.386Z,164.13
2019-02-03T04:37:55.690Z,173.68
2019-02-03T04:40:24.969Z,164.50
2019-02-03T04:42:54.253Z,165.90
2019-02-03T04:45:23.548Z,152.90
2019-02-03T04:47:53.088Z,172.57
2019-02-03T04:50:22.541Z,144.93
2019-02-03T04:52:51.841Z,155.22
2019-02-03T04:55:22.231Z,162.00
2019-02-03T04:57:51.835Z,156.35
2019-02-03T05:00:22.950Z,159.35
2019-02-03T05:02:53.089Z,173.97
2019-02-03T05:05:22.444Z,154.97
2019-02-03T05:07:51.730Z,158.52
2019-02-03T05:10:21.012Z,172.78
2019-02-03T05:12:50.597Z,164.10
2019-02-03T05:15:23.018Z,164.95
2019-02-03T05:17:52.310Z,151.57
2019-02-03T05:20:24.296Z,177.27
2019-02-03T05:22:53.845Z,166.03
2019-02-03T05:25:23.138Z,159.63
2019-02-03T05:27:52.800Z,149.30
2019-02-03T05:30:25.030Z,180.93
2019-02-03T05:32:54.638Z,163.62
2019-02-03T05:35:24.169Z,160.78
2019-02-03T05:37:53.461Z,174.65
2019-02-03T05:40:22.737Z,180.82
2019-02-03T05:42:52.029Z,174.55
2019-02-03T05:45:23.509Z,176.80
2019-02-03T05:47:53.416Z,179.60
2019-02-03T05:50:23.118Z,186.67
2019-02-03T05:52:52.417Z,158.25
2019-02-03T05:55:21.689Z,160.05
2019-02-03T05:57:50.995Z,156.87
2019-02-03T06:00:34.249Z,172.10
2019-02-03T06:03:03.551Z,159.32
2019-02-03T06:05:32.827Z,164.90
2019-02-03T06:08:02.130Z,169.05
2019-02-03T06:10:31.406Z,160.40
2019-02-03T06:13:00.956Z,165.82
2019-02-03T06:15:30.570Z,146.10
2019-02-03T06:18:00.171Z,164.52
2019-02-03T06:20:30.513Z,148.78
2019-02-03T06:22:59.811Z,166.07
2019-02-03T06:25:29.101Z,180.35
2019-02-03T06:27:58.459Z,168.28
2019-02-03T06:30:36.766Z,168.43
2019-02-03T06:33:06.318Z,150.82
2019-02-03T06:35:35.614Z,151.47
2019-02-03T06:38:05.349Z,163.15
2019-02-03T06:40:34.629Z,180.03
2019-02-03T06:43:03.922Z,175.90
2019-02-03T06:45:37.845Z,172.95
2019-02-03T06:48:07.607Z,193.25
2019-02-03T06:50:37.165Z,163.92
2019-02-03T06:53:06.457Z,150.70
2019-02-03T06:55:36.098Z,175.18
2019-02-03T06:58:05.466Z,166.00
2019-02-03T07:00:35.078Z,190.90
2019-02-03T07:03:04.766Z,187.25
2019-02-03T07:05:34.045Z,160.05
2019-02-03T07:08:03.599Z,195.53
2019-02-03T07:10:33.053Z,186.18
2019-02-03T07:13:02.347Z,192.35
2019-02-03T07:15:31.697Z,180.12
2019-02-03T07:18:01.165Z,191.65
2019-02-03T07:20:30.717Z,216.80
2019-02-03T07:23:00.321Z,217.43
2019-02-03T07:25:29.598Z,194.32
2019-02-03T07:27:58.910Z,240.10
2019-02-03T07:30:28.186Z,201.92
2019-02-03T07:32:57.751Z,216.78
2019-02-03T07:35:27.025Z,214.85
2019-02-03T07:37:56.327Z,224.77
2019-02-03T07:40:25.610Z,195.45
2019-02-03T07:42:54.899Z,209.98
2019-02-03T07:45:24.195Z,181.95
2019-02-03T07:47:53.475Z,173.15
2019-02-03T07:50:22.766Z,171.80
2019-02-03T07:52:52.049Z,167.95
2019-02-03T07:55:21.342Z,173.02
2019-02-03T07:57:50.950Z,180.45
2019-02-03T08:00:21.678Z,121.72
2019-02-03T08:02:51.285Z,120.00
2019-02-03T08:05:20.574Z,126.55
2019-02-03T08:07:50.198Z,110.85
2019-02-03T08:10:26.636Z,101.90
2019-02-03T08:12:51.253Z,74.40
2019-02-03T08:15:21.659Z,70.37
2019-02-03T08:17:50.933Z,68.15
2019-02-03T08:20:29.516Z,55.38
2019-02-03T08:22:58.816Z,66.37
2019-02-03T08:25:28.925Z,59.73
2019-02-03T08:27:58.533Z,68.42
2019-02-03T08:30:30.094Z,64.25
2019-02-03T08:32:59.361Z,58.85
2019-02-03T08:35:28.646Z,62.55
2019-02-03T08:37:57.923Z,52.38
2019-02-03T08:40:36.548Z,55.12
2019-02-03T08:42:58.741Z,53.28
2019-02-03T08:45:28.031Z,50.85
2019-02-03T08:47:57.473Z,52.55
2019-02-03T08:50:26.762Z,56.90
2019-02-03T08:52:56.656Z,55.25
2019-02-03T08:55:26.264Z,56.42
2019-02-03T08:57:57.645Z,47.85
2019-02-03T09:00:29.210Z,44.63
2019-02-03T09:02:58.489Z,45.70
2019-02-03T09:05:28.244Z,36.77
2019-02-03T09:07:57.813Z,45.15
2019-02-03T09:10:27.155Z,39.42
2019-02-03T09:12:56.902Z,40.20
2019-02-03T09:15:27.534Z,47.35
2019-02-03T09:17:56.814Z,43.73
2019-02-03T09:20:33.517Z,40.98
2019-02-03T09:23:02.973Z,40.60
2019-02-03T09:25:32.518Z,39.58
2019-02-03T09:28:01.870Z,40.80
2019-02-03T09:30:34.008Z,37.15
2019-02-03T09:33:03.913Z,37.58
2019-02-03T09:35:33.269Z,34.25
2019-02-03T09:38:02.848Z,39.48
2019-02-03T09:40:33.770Z,33.38
2019-02-03T09:43:03.360Z,37.83
2019-02-03T09:45:32.917Z,32.83
2019-02-03T09:48:02.266Z,34.23
2019-02-03T09:50:32.593Z,28.38
2019-02-03T09:53:02.813Z,29.90
2019-02-03T09:55:32.280Z,28.07
2019-02-03T09:58:02.542Z,25.30
2019-02-03T10:00:38.540Z,27.40
2019-02-03T10:03:10.048Z,24.10
2019-02-03T10:05:39.335Z,24.85
2019-02-03T10:08:08.612Z,28.10
2019-02-03T10:10:40.377Z,27.77
2019-02-03T10:13:10.031Z,23.95
2019-02-03T10:15:39.317Z,28.12
2019-02-03T10:18:09.845Z,25.70
2019-02-03T10:20:39.462Z,23.60
2019-02-03T10:23:08.743Z,22.82
2019-02-03T10:25:38.021Z,20.97
2019-02-03T10:28:07.321Z,20.27
2019-02-03T10:30:36.581Z,25.52
2019-02-03T10:33:06.282Z,16.52
2019-02-03T10:35:35.795Z,20.82
2019-02-03T10:38:06.401Z,16.80
2019-02-03T10:40:42.317Z,17.27
2019-02-03T10:43:12.009Z,22.52
2019-02-03T10:45:41.293Z,20.65
2019-02-03T10:48:10.577Z,21.87
2019-02-03T10:50:40.410Z,22.05
2019-02-03T10:53:11.729Z,17.75
2019-02-03T10:55:41.473Z,21.77
2019-02-03T10:58:10.901Z,18.90
2019-02-03T11:00:42.533Z,20.00
2019-02-03T11:03:11.807Z,19.12
2019-02-03T11:05:53.193Z,16.60
2019-02-03T11:08:22.788Z,17.65
2019-02-03T11:10:52.313Z,20.25
2019-02-03T11:13:21.577Z,18.23
2019-02-03T11:15:51.107Z,11.15
2019-02-03T11:18:20.654Z,14.05
2019-02-03T11:20:52.888Z,12.03
2019-02-03T11:23:22.172Z,13.00
2019-02-03T11:25:51.450Z,15.48
2019-02-03T11:28:20.990Z,19.95
2019-02-03T11:30:50.261Z,16.20
2019-02-03T11:33:19.811Z,14.50
2019-02-03T11:35:49.409Z,15.08
2019-02-03T11:38:19.010Z,18.10
2019-02-03T11:40:48.285Z,14.40
2019-02-03T11:43:17.597Z,12.45
2019-02-03T11:45:46.877Z,15.43
2019-02-03T11:48:20.002Z,13.68
2019-02-03T11:50:50.420Z,12.15
2019-02-03T11:53:25.082Z,10.40
2019-02-03T11:55:55.080Z,12.15
2019-02-03T11:58:24.515Z,8.58
2019-02-03T12:00:54.186Z,11.75
2019-02-03T12:03:23.530Z,20.75
2019-02-03T12:05:52.818Z,13.60
2019-02-03T12:08:22.146Z,8.55
2019-02-03T12:10:51.694Z,9.58
2019-02-03T12:13:21.237Z,11.05
2019-02-03T12:15:50.811Z,9.33
2019-02-03T12:18:20.081Z,12.63
2019-02-03T12:20:49.367Z,7.47
2019-02-03T12:23:18.925Z,11.97
2019-02-03T12:25:48.701Z,11.30
2019-02-03T12:28:17.972Z,7.60
2019-02-03T12:30:47.251Z,11.40
2019-02-03T12:33:16.531Z,9.55
2019-02-03T12:35:45.798Z,8.83
2019-02-03T12:38:15.546Z,5.72
2019-02-03T12:40:45.159Z,8.63
2019-02-03T12:43:14.757Z,8.60
2019-02-03T12:45:44.033Z,9.20
2019-02-03T12:48:13.321Z,9.10
2019-02-03T12:50:42.868Z,7.47
2019-02-03T12:53:12.534Z,10.13
2019-02-03T12:55:44.662Z,5.95
2019-02-03T12:58:12.797Z,6.35
2019-02-03T13:00:42.069Z,12.07
2019-02-03T13:03:12.443Z,6.78
2019-02-03T13:05:41.697Z,7.25
2019-02-03T13:08:11.245Z,6.80
2019-02-03T13:10:40.515Z,8.13
2019-02-03T13:13:10.128Z,8.68
2019-02-03T13:15:45.242Z,9.33
2019-02-03T13:18:16.069Z,6.83
2019-02-03T13:20:45.638Z,8.08
2019-02-03T13:23:15.191Z,8.25
2019-02-03T13:25:44.467Z,9.25
2019-02-03T13:28:13.806Z,7.10
2019-02-03T13:30:45.605Z,6.70
2019-02-03T13:33:15.829Z,6.25
2019-02-03T13:35:45.170Z,7.83
2019-02-03T13:38:14.516Z,5.45
2019-02-03T13:40:44.029Z,8.63
2019-02-03T13:43:13.549Z,8.60
2019-02-03T13:45:45.100Z,7.25
2019-02-03T13:48:14.597Z,7.78
2019-02-03T13:50:44.110Z,6.42
2019-02-03T13:53:13.713Z,9.15
2019-02-03T13:55:42.973Z,9.50
2019-02-03T13:58:12.630Z,7.20
2019-02-03T14:00:44.635Z,4.72
2019-02-03T14:03:13.986Z,7.97
2019-02-03T14:05:43.261Z,10.35
2019-02-03T14:08:13.077Z,6.53
2019-02-03T14:10:42.897Z,9.23
2019-02-03T14:13:12.187Z,8.30
2019-02-03T14:15:41.817Z,6.45
2019-02-03T14:18:11.533Z,8.13
2019-02-03T14:20:40.804Z,7.28
2019-02-03T14:23:10.068Z,5.83
2019-02-03T14:25:39.511Z,9.88
2019-02-03T14:28:09.145Z,7.37
2019-02-03T14:30:41.629Z,6.70
2019-02-03T14:33:12.264Z,6.42
2019-02-03T14:35:41.973Z,8.93
2019-02-03T14:38:11.574Z,7.55
2019-02-03T14:40:40.910Z,6.92
2019-02-03T14:43:10.426Z,10.13
2019-02-03T14:45:39.770Z,8.18
2019-02-03T14:48:09.116Z,7.08
2019-02-03T14:50:38.752Z,10.18
2019-02-03T14:53:10.804Z,5.65
2019-02-03T14:55:43.135Z,10.68
2019-02-03T14:58:14.694Z,5.95
2019-02-03T15:00:47.897Z,8.73
2019-02-03T15:03:19.218Z,9.83
2019-02-03T15:05:48.548Z,4.40
2019-02-03T15:08:17.821Z,4.85
2019-02-03T15:10:47.246Z,9.88
2019-02-03T15:13:16.853Z,5.20
2019-02-03T15:15:46.661Z,4.45
2019-02-03T15:18:15.955Z,7.08
2019-02-03T15:20:45.285Z,5.95
2019-02-03T15:23:14.561Z,8.18
2019-02-03T15:25:46.841Z,6.00
2019-02-03T15:28:16.633Z,6.12
2019-02-03T15:30:46.759Z,6.72
2019-02-03T15:33:16.061Z,8.05
2019-02-03T15:35:45.502Z,7.00
2019-02-03T15:38:15.093Z,7.75
2019-02-03T15:40:44.903Z,8.68
2019-02-03T15:43:25.193Z,7.87
2019-02-03T15:45:45.430Z,10.15
2019-02-03T15:48:14.703Z,9.10
2019-02-03T15:50:43.975Z,7.37
2019-02-03T15:53:13.530Z,8.68
2019-02-03T15:55:43.042Z,10.72
2019-02-03T15:58:13.192Z,9.23
2019-02-03T16:00:48.289Z,10.32
2019-02-03T16:03:17.907Z,12.00
2019-02-03T16:05:47.204Z,15.50
2019-02-03T16:08:16.885Z,8.85
2019-02-03T16:10:46.175Z,10.30
2019-02-03T16:13:15.650Z,14.65
2019-02-03T16:15:44.917Z,12.82
2019-02-03T16:18:14.192Z,15.20
2019-02-03T16:20:43.854Z,9.73
2019-02-03T16:23:13.444Z,10.78
2019-02-03T16:25:42.725Z,8.70
2019-02-03T16:28:12.245Z,13.78
2019-02-03T16:30:42.261Z,10.32
2019-02-03T16:33:13.061Z,9.45
2019-02-03T16:35:42.477Z,9.78
2019-02-03T16:38:22.518Z,10.78
2019-02-03T16:40:43.106Z,14.90
2019-02-03T16:43:12.467Z,10.38
2019-02-03T16:45:41.745Z,22.40
2019-02-03T16:48:11.113Z,17.90
2019-02-03T16:50:40.792Z,11.90
2019-02-03T16:53:10.478Z,19.15
2019-02-03T16:55:40.185Z,10.85
2019-02-03T16:58:09.533Z,13.85
2019-02-03T17:00:40.009Z,12.80
2019-02-03T17:03:09.425Z,10.05
2019-02-03T17:05:39.026Z,14.95
2019-02-03T17:08:08.970Z,8.83
2019-02-03T17:10:38.433Z,12.78
2019-02-03T17:13:07.706Z,9.83
2019-02-03T17:15:45.979Z,14.18
2019-02-03T17:18:15.411Z,10.05
2019-02-03T17:20:44.925Z,9.58
2019-02-03T17:23:14.201Z,11.45
2019-02-03T17:25:52.234Z,11.70
2019-02-03T17:28:21.782Z,11.12
2019-02-03T17:30:53.449Z,12.23
2019-02-03T17:33:22.738Z,7.17
2019-02-03T17:35:54.443Z,9.40
2019-02-03T17:38:23.078Z,8.93
2019-02-03T17:40:52.640Z,10.20
2019-02-03T17:43:21.916Z,11.08
2019-02-03T17:45:51.494Z,8.05
2019-02-03T17:48:20.765Z,13.75
2019-02-03T17:50:50.044Z,13.28
2019-02-03T17:53:19.700Z,10.82
2019-02-03T17:55:49.049Z,9.00
2019-02-03T17:58:18.318Z,10.40
2019-02-03T18:00:49.241Z,13.83
2019-02-03T18:03:18.510Z,11.78
2019-02-03T18:05:47.902Z,10.72
2019-02-03T18:08:18.130Z,14.30
2019-02-03T18:10:47.686Z,10.43
2019-02-03T18:13:17.164Z,10.48
2019-02-03T18:15:46.452Z,10.70
2019-02-03T18:18:15.733Z,10.00
2019-02-03T18:20:45.295Z,10.50
2019-02-03T18:23:14.566Z,11.12
2019-02-03T18:25:43.910Z,11.08
2019-02-03T18:28:13.190Z,11.28
2019-02-03T18:30:42.486Z,9.70
2019-02-03T18:33:12.037Z,12.13
2019-02-03T18:35:41.805Z,10.48
2019-02-03T18:38:13.817Z,7.92
2019-02-03T18:40:43.394Z,11.68
2019-02-03T18:43:12.663Z,11.65
2019-02-03T18:45:42.019Z,11.05
2019-02-03T18:48:11.359Z,9.88
2019-02-03T18:50:40.648Z,9.10
2019-02-03T18:53:10.296Z,14.30
2019-02-03T18:55:43.100Z,15.15
2019-02-03T18:58:12.388Z,13.05
2019-02-03T19:00:41.990Z,11.50
2019-02-03T19:03:11.445Z,10.13
2019-02-03T19:05:42.601Z,13.35
2019-02-03T19:08:11.929Z,10.50
2019-02-03T19:10:41.240Z,13.10
2019-02-03T19:13:10.563Z,13.03
2019-02-03T19:15:40.204Z,15.32
2019-02-03T19:18:09.864Z,13.70
2019-02-03T19:20:41.482Z,15.13
2019-02-03T19:23:12.390Z,14.43
2019-02-03T19:25:42.262Z,17.57
2019-02-03T19:28:11.577Z,14.33
2019-02-03T19:30:40.930Z,15.00
2019-02-03T19:33:10.198Z,13.93
2019-02-03T19:35:39.602Z,14.58
2019-02-03T19:38:09.435Z,13.48
2019-02-03T19:40:38.718Z,17.23
2019-02-03T19:43:08.369Z,17.37
2019-02-03T19:45:37.717Z,18.62
2019-02-03T19:48:07.154Z,20.80
2019-02-03T19:50:41.744Z,17.05
2019-02-03T19:53:12.288Z,22.98
2019-02-03T19:55:42.421Z,24.82
2019-02-03T19:58:11.757Z,22.00
2019-02-03T20:00:45.501Z,20.15
2019-02-03T20:03:14.806Z,21.68
2019-02-03T20:05:44.145Z,22.65
2019-02-03T20:08:13.552Z,23.02
2019-02-03T20:10:43.206Z,22.87
2019-02-03T20:13:12.490Z,24.07
2019-02-03T20:15:42.109Z,22.35
2019-02-03T20:18:11.567Z,23.80
2019-02-03T20:20:41.418Z,20.62
2019-02-03T20:23:11.170Z,23.47
2019-02-03T20:25:41.434Z,20.02
2019-02-03T20:28:11.991Z,18.10
2019-02-03T20:30:41.702Z,18.62
2019-02-03T20:33:10.983Z,16.52
2019-02-03T20:35:41.125Z,26.57
2019-02-03T20:38:10.829Z,22.22
2019-02-03T20:40:42.373Z,19.35
2019-02-03T20:43:11.822Z,24.32
2019-02-03T20:45:49.019Z,23.85
2019-02-03T20:48:12.557Z,25.35
2019-02-03T20:50:42.245Z,20.02
2019-02-03T20:53:11.805Z,19.25
2019-02-03T20:55:41.077Z,23.83
2019-02-03T20:58:10.375Z,31.80
2019-02-03T21:00:39.900Z,29.23
2019-02-03T21:03:09.470Z,30.37
2019-02-03T21:05:39.202Z,30.30
2019-02-03T21:08:08.630Z,26.82
2019-02-03T21:10:37.906Z,26.75
2019-02-03T21:13:11.329Z,19.30
2019-02-03T21:15:38.234Z,24.07
2019-02-03T21:18:08.114Z,25.48
2019-02-03T21:20:37.853Z,25.27
2019-02-03T21:23:07.474Z,24.15
2019-02-03T21:25:36.744Z,28.05
2019-02-03T21:28:06.101Z,23.67
2019-02-03T21:30:37.218Z,32.15
2019-02-03T21:33:06.914Z,29.23
2019-02-03T21:35:36.528Z,30.48
2019-02-03T21:38:06.580Z,26.30
2019-02-03T21:40:36.024Z,23.62
2019-02-03T21:43:05.442Z,25.10
2019-02-03T21:45:44.174Z,26.35
2019-02-03T21:48:06.813Z,22.22
2019-02-03T21:50:36.094Z,27.60
2019-02-03T21:53:05.578Z,21.65
2019-02-03T21:55:35.025Z,26.82
2019-02-03T21:58:04.949Z,25.57
2019-02-03T22:00:34.219Z,29.60
2019-02-03T22:03:03.510Z,29.70
2019-02-03T22:05:32.781Z,28.87
2019-02-03T22:08:02.061Z,29.60
2019-02-03T22:10:34.321Z,30.90
2019-02-03T22:13:04.460Z,32.25
2019-02-03T22:15:34.047Z,34.85
2019-02-03T22:18:03.741Z,25.45
2019-02-03T22:20:33.204Z,29.87
2019-02-03T22:23:02.561Z,28.75
2019-02-03T22:25:32.014Z,30.65
2019-02-03T22:28:01.293Z,35.73
2019-02-03T22:30:35.564Z,39.50
2019-02-03T22:33:05.682Z,31.68
2019-02-03T22:35:35.522Z,29.65
2019-02-03T22:38:05.113Z,29.98
2019-02-03T22:40:34.392Z,34.20
2019-02-03T22:43:04.129Z,38.50
2019-02-03T22:45:33.473Z,31.40
2019-02-03T22:48:02.829Z,32.15
2019-02-03T22:50:33.569Z,29.77
2019-02-03T22:53:03.187Z,28.57
2019-02-03T22:55:32.465Z,30.97
2019-02-03T22:58:01.746Z,30.70
2019-02-03T23:00:53.071Z,33.02
2019-02-03T23:03:25.701Z,31.73
2019-02-03T23:05:55.282Z,26.37
2019-02-03T23:08:24.570Z,27.65
2019-02-03T23:10:55.230Z,32.10
2019-02-03T23:13:24.822Z,31.48
2019-02-03T23:15:54.434Z,39.73
2019-02-03T23:18:23.716Z,33.92
2019-02-03T23:20:53.073Z,30.15
2019-02-03T23:23:22.341Z,28.30
2019-02-03T23:25:52.965Z,31.12
2019-02-03T23:28:22.529Z,29.12
2019-02-03T23:30:51.805Z,32.78
2019-02-03T23:33:21.090Z,29.48
2019-02-03T23:35:50.364Z,24.02
2019-02-03T23:38:19.678Z,22.05
2019-02-03T23:40:48.952Z,21.62
2019-02-03T23:43:18.815Z,23.85
2019-02-03T23:45:48.407Z,21.20
2019-02-03T23:48:18.010Z,24.80
2019-02-03T23:50:47.517Z,23.18
2019-02-03T23:53:16.801Z,27.45
2019-02-03T23:55:46.314Z,27.27
2019-02-03T23:58:15.933Z,25.32
